• Join FlightAware (Why Join?)
  • Login
  • US Flag 
04:37AM EDT


 

Airport Tracker/Info


-or-


 

Live Flight TrackerFlight Track Log ✈ DAL1562 ✈ 08-Apr-2013 ✈ KDTW - KPHL

Flight Track Log - Related Links

Times and Time Zones

All times are in EDT time to prevent confusion due to time zone crossing. See the DAL1562 flight status page for this flight to view local times or setup timezone preferences in your user account.

Time Position Orientation Groundspeed Altitude Reporting Facility
EDT Latitude Longitude Course Direction KTS MPH feet Rate Location/Type
02:13PM 42.2017 -83.3583 194° South 168 193 1,500  Level Cleveland Center
02:14PM 42.1594 -83.3731 194° South 231 266 3,200 3,000 Climbing Cleveland Center
02:15PM 42.0944 -83.3872 189° South 239 275 7,100 3,240 Climbing Cleveland Center
02:16PM 42.0264 -83.3589 163° South 296 341 9,900 1,560 Climbing Cleveland Center
02:17PM 41.9975 -83.2628 112° Southeast 353 406 10,000  Climbing Cleveland Center
02:18PM 41.9692 -83.1331 106° East 358 412 10,000  Level Cleveland Center
02:19PM 41.9906 -83.0108 77° East 326 375 10,000 300 Level Cleveland Center
02:20PM 42.0614 -82.9100 47° Northeast 330 380 10,700 1,440 Climbing Cleveland Center
02:21PM 42.1139 -82.7861 60° Northeast 345 397 12,900 1,380 Climbing Cleveland Center
02:22PM 42.1061 -82.6431 94° East 353 406 13,500 1,680 Climbing Cleveland Center
02:23PM 42.0561 -82.5183 118° Southeast 352 405 16,300 2,580 Climbing Cleveland Center
02:24PM 42.0042 -82.3856 118° Southeast 364 419 18,700 2,040 Climbing Cleveland Center
02:25PM 41.9500 -82.2444 117° Southeast 391 450 20,400 1,800 Climbing Cleveland Center
02:26PM 41.8978 -82.1119 118° Southeast 419 482 22,300 1,740 Climbing Cleveland Center
02:27PM 41.8369 -81.9572 118° Southeast 459 528 23,900 1,740 Climbing Cleveland Center
02:28PM 41.7722 -81.7969 118° Southeast 481 554 25,800 1,680 Climbing Cleveland Center
02:29PM 41.6861 -81.6369 126° Southeast 486 559 27,300 1,620 Climbing Cleveland Center
02:30PM 41.6000 -81.4939 129° Southeast 496 571 29,100 1,740 Climbing Cleveland Center
02:31PM 41.5175 -81.3514 128° Southeast 490 564 30,800 900 Climbing Cleveland Center
02:32PM 41.4308 -81.2064 129° Southeast 495 570 31,000 60 Climbing Cleveland Center
02:33PM 41.3461 -81.0672 129° Southeast 495 570 31,000  Level Cleveland Center
02:34PM 41.2714 -80.9422 128° Southeast 495 570 31,000  Level Cleveland Center
02:35PM 41.1883 -80.8039 129° Southeast 490 564 31,000  Level Cleveland Center
02:36PM 41.1053 -80.6631 128° Southeast 485 558 31,000  Level Cleveland Center
02:37PM 41.0219 -80.5253 129° Southeast 485 558 31,000  Level Cleveland Center
02:38PM 40.9342 -80.3881 130° Southeast 485 558 31,000  Level Cleveland Center
02:39PM 40.8400 -80.2400 130° Southeast 485 558 31,000  Level Cleveland Center
02:40PM 40.7747 -80.0814 118° Southeast 485 558 31,000  Level Cleveland Center
02:41PM 40.7178 -79.9119 114° Southeast 490 564 31,000  Level Cleveland Center
02:42PM 40.6583 -79.7511 116° Southeast 490 564 31,000  Level Cleveland Center
02:43PM 40.5986 -79.5906 116° Southeast 490 564 31,000  Level Cleveland Center
02:44PM 40.5386 -79.4275 116° Southeast 485 558 31,000  Level Cleveland Center
02:45PM 40.4806 -79.2647 115° Southeast 485 558 31,000  Level Cleveland Center
02:46PM 40.4514 -79.0933 103° East 485 558 31,000  Level Cleveland Center
02:47PM 40.4325 -78.9328 99° East 489 563 31,000  Level Cleveland Center
02:48PM 40.4131 -78.7533 98° East 489 563 31,000  Level Cleveland Center
02:49PM 40.3914 -78.5822 99° East 484 557 31,000 -960 Level Cleveland Center
02:50PM 40.3550 -78.3000 100° East 468 539 28,600 -2,160 Descending New York Center
02:51PM 40.3325 -78.1258 100° East 473 544 25,600 -1,800 Descending New York Center
02:52PM 40.3122 -77.9494 99° East 473 544 25,000 -300 Descending New York Center
02:53PM 40.3100 -77.7778 91° East 473 544 25,000 -840 Level New York Center
02:54PM 40.3089 -77.6169 90° East 473 544 23,400 -1,560 Descending New York Center
02:55PM 40.3083 -77.4453 90° East 473 544 22,000 -1,560 Descending New York Center
02:56PM 40.3000 -77.2594 93° East 478 550 20,300 -1,800 Descending New York Center
02:57PM 40.2736 -77.0908 102° East 473 544 18,400 -1,560 Descending New York Center
02:58PM 40.2425 -76.9275 104° East 468 539 17,300 -1,020 Descending New York Center
02:59PM 40.2183 -76.7922 103° East 440 506 16,400 -1,380 Descending New York Center
03:00PM 40.1900 -76.6511 105° East 417 480 14,600 -2,280 Descending New York Center
03:01PM 40.1600 -76.4992 104° East 398 458 11,900 -1,920 Descending New York Center
03:02PM 40.1350 -76.3736 105° East 386 444 11,000 -780 Descending FAA TRACON SMA TRACON (SMA)
03:02PM 40.1278 -76.3281 102° East 384 442 11,000  Level FAA TRACON SMA TRACON (SMA)
03:03PM 40.1203 -76.2883 104° East 384 442 11,000  Level FAA TRACON SMA TRACON (SMA)
03:03PM 40.1164 -76.2456 97° East 386 444 11,000  Level FAA TRACON SMA TRACON (SMA)
03:03PM 40.1128 -76.1894 95° East 386 444 11,000  Level FAA TRACON SMA TRACON (SMA)
03:04PM 40.1094 -76.1469 96° East 385 443 11,000 -300 Level FAA TRACON SMA TRACON (SMA)
03:04PM 40.1061 -76.0944 95° East 385 443 10,800 -600 Descending FAA TRACON SMA TRACON (SMA)
03:04PM 40.1044 -76.0486 93° East 384 442 10,600 -900 Descending FAA TRACON SMA TRACON (SMA)
03:05PM 40.1003 -76.0094 98° East 378 435 10,200 -900 Descending FAA TRACON SMA TRACON (SMA)
03:05PM 40.0978 -75.9619 94° East 352 405 10,000 -480 Descending FAA TRACON SMA TRACON (SMA)
03:05PM 40.0947 -75.9250 96° East 326 375 9,900 -600 Descending FAA TRACON SMA TRACON (SMA)
03:06PM 40.0922 -75.8906 95° East 315 362 9,600 -1,440 Descending FAA TRACON SMA TRACON (SMA)
03:06PM 40.0883 -75.8483 97° East 309 356 8,900 -1,800 Descending FAA TRACON SMA TRACON (SMA)
03:06PM 40.0864 -75.8139 94° East 306 352 8,400 -1,440 Descending FAA TRACON SMA TRACON (SMA)
03:07PM 40.0844 -75.7808 94° East 303 349 8,000 -1,440 Descending FAA TRACON SMA TRACON (SMA)
03:07PM 40.0833 -75.7497 93° East 299 344 7,500 -1,680 Descending FAA TRACON SMA TRACON (SMA)
03:07PM 40.0792 -75.7078 97° East 294 338 6,900 -1,500 Descending FAA TRACON SMA TRACON (SMA)
03:08PM 40.0775 -75.6764 94° East 291 335 6,500 -1,200 Descending FAA TRACON SMA TRACON (SMA)
03:08PM 40.0781 -75.6461 89° East 287 330 6,100 -660 Descending FAA TRACON SMA TRACON (SMA)
03:08PM 40.0753 -75.6039 95° East 283 326 6,100 -180 Level FAA TRACON SMA TRACON (SMA)
03:09PM 40.0736 -75.5725 94° East 284 327 6,000 -180 Descending FAA TRACON SMA TRACON (SMA)
03:09PM 40.0731 -75.5431 91° East 283 326 6,000  Level FAA TRACON SMA TRACON (SMA)
03:09PM 40.0706 -75.5011 94° East 283 326 6,000  Level FAA TRACON SMA TRACON (SMA)
03:10PM 40.0692 -75.4703 93° East 283 326 6,000  Level FAA TRACON SMA TRACON (SMA)
03:10PM 40.0669 -75.4408 96° East 283 326 6,000  Level FAA TRACON SMA TRACON (SMA)
03:10PM 40.0656 -75.3972 92° East 287 330 6,000  Level FAA TRACON SMA TRACON (SMA)
03:11PM 40.0644 -75.3650 93° East 287 330 6,000  Level FAA TRACON SMA TRACON (SMA)
03:11PM 40.0619 -75.3347 96° East 287 330 6,000 -360 Level FAA TRACON SMA TRACON (SMA)
03:11PM 40.0600 -75.2953 94° East 276 318 5,800 -1,080 Descending FAA TRACON SMA TRACON (SMA)
03:12PM 40.0547 -75.2653 103° East 274 315 5,300 -1,380 Descending FAA TRACON SMA TRACON (SMA)
03:12PM 40.0483 -75.2375 107° East 270 311 4,900 -1,080 Descending FAA TRACON SMA TRACON (SMA)
03:12PM 40.0431 -75.2017 101° East 255 293 4,600 -780 Descending FAA TRACON SMA TRACON (SMA)
03:13PM 40.0381 -75.1747 104° East 244 281 4,400 -900 Descending FAA TRACON SMA TRACON (SMA)
03:13PM 40.0333 -75.1522 105° East 229 264 4,000 -1,080 Descending FAA TRACON SMA TRACON (SMA)
03:13PM 40.0189 -75.1353 138° Southeast 213 245 3,700 -1,380 Descending FAA TRACON SMA TRACON (SMA)
03:14PM 39.9986 -75.1222 154° Southeast 203 234 3,100 -1,080 Descending FAA TRACON SMA TRACON (SMA)
03:14PM 39.9836 -75.1122 153° Southeast 205 236 3,000 -480 Descending FAA TRACON SMA TRACON (SMA)
03:14PM 39.9647 -75.1022 158° South 196 226 2,800 -780 Descending FAA TRACON SMA TRACON (SMA)
03:15PM 39.9492 -75.0925 154° Southeast 190 219 2,500 -1,080 Descending FAA TRACON SMA TRACON (SMA)
03:15PM 39.9342 -75.0844 158° South 178 205 2,100 -780 Descending FAA TRACON SMA TRACON (SMA)
03:15PM 39.9200 -75.0917 201° Southwest 169 194 2,000 -360 Descending FAA TRACON SMA TRACON (SMA)
03:16PM 39.9064 -75.1044 216° Southwest 158 182 1,900 -480 Descending FAA TRACON SMA TRACON (SMA)
03:16PM 39.8986 -75.1167 230° Southwest 143 165 1,700 -780 Descending FAA TRACON SMA TRACON (SMA)
03:16PM 39.8928 -75.1342 247° West 146 168 1,400 -960 Descending FAA TRACON SMA TRACON (SMA)
03:17PM 39.8892 -75.1525 256° West 158 182 1,100 -780 Descending FAA TRACON SMA TRACON (SMA)
03:17PM 39.8861 -75.1678 255° West 151 174 900 -600 Descending FAA TRACON SMA TRACON (SMA)
03:17PM 39.8831 -75.1847 257° West 150 173 700 -780 Descending FAA TRACON SMA TRACON (SMA)
03:18PM 39.8789 -75.2042 254° West 147 169 400 -780 Descending FAA TRACON SMA TRACON (SMA)
03:18PM 39.8767 -75.2156 256° West 144 166 200 -300 Descending FAA TRACON SMA TRACON (SMA)
03:18PM 39.8767 -75.2156 134° Southeast 144 166 200  Level FAA TRACON SMA TRACON (SMA)